createdAt,value
2019-05-02T00:00:10.313Z,7.66
2019-05-02T00:02:39.104Z,7.73
2019-05-02T00:05:07.315Z,7.82
2019-05-02T00:07:33.726Z,7.60
2019-05-02T00:09:59.920Z,7.53
2019-05-02T00:12:27.962Z,7.41
2019-05-02T00:14:56.455Z,7.41
2019-05-02T00:17:25.551Z,7.41
2019-05-02T00:19:52.343Z,7.32
2019-05-02T00:22:18.814Z,7.42
2019-05-02T00:24:45.849Z,7.51
2019-05-02T00:27:12.191Z,7.35
2019-05-02T00:29:38.725Z,7.18
2019-05-02T00:32:05.222Z,7.10
2019-05-02T00:34:31.544Z,7.04
2019-05-02T00:36:57.813Z,6.64
2019-05-02T00:39:24.012Z,6.52
2019-05-02T00:41:50.218Z,6.41
2019-05-02T00:44:16.510Z,6.42
2019-05-02T00:46:42.734Z,6.58
2019-05-02T00:49:08.918Z,6.64
2019-05-02T00:51:35.352Z,6.67
2019-05-02T00:54:01.768Z,6.71
2019-05-02T00:56:28.105Z,6.64
2019-05-02T00:58:54.374Z,6.56
2019-05-02T01:01:29.667Z,6.45
2019-05-02T01:03:58.436Z,6.40
2019-05-02T01:06:24.746Z,6.62
2019-05-02T01:08:50.882Z,6.74
2019-05-02T01:11:17.262Z,6.52
2019-05-02T01:13:43.434Z,6.57
2019-05-02T01:16:09.573Z,6.52
2019-05-02T01:18:37.131Z,6.44
2019-05-02T01:21:04.172Z,6.43
2019-05-02T01:23:31.720Z,6.33
2019-05-02T01:25:57.836Z,6.29
2019-05-02T01:28:25.975Z,6.23
2019-05-02T01:31:13.064Z,6.29
2019-05-02T01:33:54.132Z,6.41
2019-05-02T01:36:22.360Z,6.40
2019-05-02T01:38:50.076Z,6.40
2019-05-02T01:41:16.304Z,6.18
2019-05-02T01:43:42.443Z,6.13
2019-05-02T01:46:08.783Z,6.05
2019-05-02T01:48:35.077Z,6.16
2019-05-02T01:51:04.339Z,6.35
2019-05-02T01:53:34.341Z,6.37
2019-05-02T01:55:59.314Z,6.37
2019-05-02T01:58:25.569Z,6.33
2019-05-02T02:00:51.760Z,6.24
2019-05-02T02:03:18.069Z,6.24
2019-05-02T02:05:44.385Z,6.30
2019-05-02T02:08:10.711Z,6.32
2019-05-02T02:10:37.016Z,6.10
2019-05-02T02:13:05.191Z,6.08
2019-05-02T02:15:31.590Z,6.01
2019-05-02T02:17:57.895Z,6.15
2019-05-02T02:20:37.774Z,6.14
2019-05-02T02:23:10.189Z,6.23
2019-05-02T02:25:38.493Z,6.30
2019-05-02T02:28:04.812Z,6.35
2019-05-02T02:30:31.080Z,6.38
2019-05-02T02:33:00.852Z,6.49
2019-05-02T02:35:25.601Z,6.59
2019-05-02T02:37:52.932Z,6.62
2019-05-02T02:40:19.997Z,6.74
2019-05-02T02:42:46.282Z,6.80
2019-05-02T02:45:59.714Z,6.76
2019-05-02T02:48:26.444Z,6.82
2019-05-02T02:50:52.649Z,6.75
2019-05-02T02:53:31.029Z,6.82
2019-05-02T02:56:02.046Z,6.90
2019-05-02T02:58:27.928Z,6.89
2019-05-02T03:00:54.244Z,6.98
2019-05-02T03:03:27.235Z,7.05
2019-05-02T03:05:48.684Z,7.00
2019-05-02T03:08:14.975Z,7.10
2019-05-02T03:10:45.099Z,7.06
2019-05-02T03:13:14.906Z,7.03
2019-05-02T03:15:44.123Z,7.14
2019-05-02T03:18:10.424Z,7.19
2019-05-02T03:20:40.726Z,7.17
2019-05-02T03:23:04.960Z,7.07
2019-05-02T03:25:50.073Z,6.81
2019-05-02T03:27:59.942Z,6.91
2019-05-02T03:30:35.497Z,6.95
2019-05-02T03:33:06.650Z,6.79
2019-05-02T03:35:40.864Z,6.80
2019-05-02T03:37:53.137Z,6.67
2019-05-02T03:40:19.683Z,6.69
2019-05-02T03:42:47.738Z,6.68
2019-05-02T03:45:14.218Z,6.66
2019-05-02T03:47:43.659Z,6.72
2019-05-02T03:50:09.971Z,6.80
2019-05-02T03:52:42.573Z,6.80
2019-05-02T03:55:05.006Z,6.81
2019-05-02T03:57:33.419Z,6.73
2019-05-02T03:59:59.104Z,6.53
2019-05-02T04:02:25.840Z,6.66
2019-05-02T04:04:54.399Z,6.62
2019-05-02T04:07:20.130Z,6.60
2019-05-02T04:09:46.539Z,6.70
2019-05-02T04:12:18.531Z,6.67
2019-05-02T04:14:41.425Z,6.68
2019-05-02T04:17:09.534Z,6.81
2019-05-02T04:19:36.538Z,6.71
2019-05-02T04:22:08.624Z,6.41
2019-05-02T04:24:31.436Z,6.32
2019-05-02T04:26:58.268Z,6.33
2019-05-02T04:29:30.455Z,6.32
2019-05-02T04:31:52.485Z,6.42
2019-05-02T04:34:18.785Z,6.41
2019-05-02T04:36:46.576Z,6.33
2019-05-02T04:39:20.509Z,6.20
2019-05-02T04:41:42.359Z,6.18
2019-05-02T04:44:09.248Z,6.37
2019-05-02T04:46:38.574Z,6.44
2019-05-02T04:49:03.728Z,6.28
2019-05-02T04:51:32.168Z,6.41
2019-05-02T04:53:58.890Z,6.37
2019-05-02T04:56:28.362Z,6.54
2019-05-02T04:58:54.578Z,6.53
2019-05-02T05:01:21.533Z,6.37
2019-05-02T05:03:49.226Z,6.45
2019-05-02T05:06:18.637Z,6.50
2019-05-02T05:08:44.098Z,6.52
2019-05-02T05:11:14.058Z,6.48
2019-05-02T05:13:38.568Z,6.50
2019-05-02T05:16:08.680Z,6.40
2019-05-02T05:18:32.930Z,6.47
2019-05-02T05:20:59.112Z,6.47
2019-05-02T05:23:28.004Z,6.49
2019-05-02T05:26:03.459Z,6.62
2019-05-02T05:28:24.370Z,6.52
2019-05-02T05:30:52.229Z,6.59
2019-05-02T05:33:18.587Z,6.57
2019-05-02T05:35:50.959Z,6.61
2019-05-02T05:38:12.786Z,6.62
2019-05-02T05:40:38.996Z,6.68
2019-05-02T05:43:13.564Z,6.85
2019-05-02T05:45:33.443Z,6.95
2019-05-02T05:48:01.124Z,7.03
2019-05-02T05:50:27.681Z,6.98
2019-05-02T05:52:53.881Z,6.93
2019-05-02T05:55:24.058Z,6.98
2019-05-02T05:57:50.128Z,7.04
2019-05-02T06:00:22.653Z,7.01
2019-05-02T06:02:53.862Z,7.07
2019-05-02T06:05:12.763Z,6.97
2019-05-02T06:07:41.802Z,6.92
2019-05-02T06:10:08.307Z,6.96
2019-05-02T06:12:35.758Z,7.04
2019-05-02T06:15:03.785Z,6.96
2019-05-02T06:17:30.505Z,7.03
2019-05-02T06:19:57.065Z,7.12
2019-05-02T06:22:24.776Z,7.13
2019-05-02T06:24:52.407Z,7.16
2019-05-02T06:27:20.810Z,7.14
2019-05-02T06:29:51.092Z,7.17
2019-05-02T06:32:19.276Z,7.27
2019-05-02T06:34:46.467Z,7.24
2019-05-02T06:37:13.677Z,7.27
2019-05-02T06:39:40.532Z,7.23
2019-05-02T06:42:06.750Z,7.26
2019-05-02T06:44:33.014Z,7.16
2019-05-02T06:47:05.719Z,7.29
2019-05-02T06:49:32.076Z,7.40
2019-05-02T06:51:58.645Z,7.36
2019-05-02T06:54:24.839Z,7.41
2019-05-02T06:56:51.231Z,7.31
2019-05-02T06:59:18.576Z,7.44
2019-05-02T07:01:45.582Z,7.45
2019-05-02T07:04:12.092Z,7.51
2019-05-02T07:06:56.118Z,7.52
2019-05-02T07:09:06.817Z,7.46
2019-05-02T07:11:38.306Z,7.62
2019-05-02T07:14:12.630Z,7.58
2019-05-02T07:16:38.434Z,7.59
2019-05-02T07:19:10.623Z,7.54
2019-05-02T07:21:36.959Z,7.62
2019-05-02T07:24:04.772Z,7.66
2019-05-02T07:26:31.207Z,7.61
2019-05-02T07:28:58.741Z,7.78
2019-05-02T07:31:25.144Z,7.66
2019-05-02T07:33:51.349Z,7.68
2019-05-02T07:36:17.594Z,7.66
2019-05-02T07:38:43.927Z,7.79
2019-05-02T07:41:10.315Z,7.93
2019-05-02T07:43:36.498Z,8.04
2019-05-02T07:46:03.304Z,7.74
2019-05-02T07:48:31.520Z,7.91
2019-05-02T07:50:57.602Z,7.97
2019-05-02T07:53:23.835Z,7.92
2019-05-02T07:55:50.143Z,8.06
2019-05-02T07:58:16.366Z,8.13
2019-05-02T08:00:42.444Z,8.22
2019-05-02T08:03:08.749Z,8.32
2019-05-02T08:05:35.513Z,8.41
2019-05-02T08:08:03.107Z,8.44
2019-05-02T08:10:30.592Z,8.52
2019-05-02T08:12:56.772Z,8.27
2019-05-02T08:15:24.565Z,8.25
2019-05-02T08:17:53.864Z,8.40
2019-05-02T08:20:21.175Z,8.48
2019-05-02T08:22:49.029Z,8.38
2019-05-02T08:25:15.909Z,8.53
2019-05-02T08:27:44.013Z,8.75
2019-05-02T08:30:13.035Z,8.35
2019-05-02T08:32:39.407Z,8.39
2019-05-02T08:35:05.850Z,8.61
2019-05-02T08:37:35.430Z,8.72
2019-05-02T08:40:00.425Z,8.85
2019-05-02T08:42:32.685Z,8.58
2019-05-02T08:45:00.907Z,8.41
2019-05-02T08:47:28.579Z,8.41
2019-05-02T08:49:54.909Z,8.35
2019-05-02T08:52:21.064Z,8.47
2019-05-02T08:54:47.458Z,8.49
2019-05-02T08:57:13.861Z,8.62
2019-05-02T08:59:40.973Z,8.58
2019-05-02T09:02:07.443Z,8.77
2019-05-02T09:04:33.839Z,8.76
2019-05-02T09:07:00.806Z,8.91
2019-05-02T09:09:32.559Z,9.15
2019-05-02T09:12:03.274Z,9.09
2019-05-02T09:14:23.366Z,9.46
2019-05-02T09:16:49.514Z,9.76
2019-05-02T09:19:21.349Z,9.67
2019-05-02T09:21:44.002Z,9.89
2019-05-02T09:24:15.827Z,10.14
2019-05-02T09:26:38.880Z,10.56
2019-05-02T09:29:05.590Z,10.57
2019-05-02T09:31:32.088Z,10.40
2019-05-02T09:33:58.214Z,10.46
2019-05-02T09:36:24.428Z,10.73
2019-05-02T09:38:56.023Z,10.99
2019-05-02T09:41:19.426Z,10.94
2019-05-02T09:43:45.783Z,10.65
2019-05-02T09:46:16.511Z,10.62
2019-05-02T09:48:42.513Z,10.93
2019-05-02T09:51:12.520Z,11.63
2019-05-02T09:53:36.822Z,11.23
2019-05-02T09:56:03.150Z,11.62
2019-05-02T09:58:31.859Z,12.14
2019-05-02T10:01:05.562Z,12.17
2019-05-02T10:03:33.064Z,12.17
2019-05-02T10:05:59.299Z,12.52
2019-05-02T10:08:25.685Z,12.45
2019-05-02T10:10:52.310Z,11.62
2019-05-02T10:13:18.496Z,11.56
2019-05-02T10:15:45.456Z,11.81
2019-05-02T10:18:14.393Z,12.76
2019-05-02T10:20:41.958Z,12.76
2019-05-02T10:23:12.074Z,13.02
2019-05-02T10:25:39.343Z,12.84
2019-05-02T10:28:05.365Z,12.51
2019-05-02T10:30:35.873Z,12.51
2019-05-02T10:33:02.514Z,12.61
2019-05-02T10:35:37.210Z,12.41
2019-05-02T10:38:02.502Z,13.09
2019-05-02T10:40:28.835Z,13.09
2019-05-02T10:42:55.212Z,12.86
2019-05-02T10:45:22.493Z,12.67
2019-05-02T10:47:49.026Z,13.03
2019-05-02T10:50:22.261Z,13.03
2019-05-02T10:52:48.724Z,13.38
2019-05-02T10:55:15.144Z,12.78
2019-05-02T10:57:42.044Z,13.78
2019-05-02T11:00:12.263Z,13.78
2019-05-02T11:02:57.047Z,14.21
2019-05-02T11:05:26.589Z,14.79
2019-05-02T11:07:56.962Z,14.99
2019-05-02T11:10:21.813Z,13.84
2019-05-02T11:13:08.025Z,14.02
2019-05-02T11:15:44.816Z,14.54
2019-05-02T11:18:12.706Z,13.70
2019-05-02T11:20:39.106Z,13.95
2019-05-02T11:23:05.224Z,14.47
2019-05-02T11:25:32.011Z,14.81
2019-05-02T11:28:02.907Z,14.95
2019-05-02T11:30:26.753Z,15.10
2019-05-02T11:32:53.045Z,15.40
2019-05-02T11:35:19.340Z,16.03
2019-05-02T11:37:45.421Z,15.62
2019-05-02T11:40:12.856Z,15.65
2019-05-02T11:42:41.543Z,15.78
2019-05-02T11:45:08.064Z,15.99
2019-05-02T11:47:34.258Z,15.58
2019-05-02T11:50:02.403Z,15.83
2019-05-02T11:52:33.022Z,15.70
2019-05-02T11:54:57.084Z,15.08
2019-05-02T11:57:28.487Z,15.35
2019-05-02T11:59:52.049Z,15.48
2019-05-02T12:02:22.041Z,15.52
2019-05-02T12:04:53.967Z,15.76
2019-05-02T12:09:57.064Z,15.85
2019-05-02T12:12:27.293Z,16.52
2019-05-02T12:14:52.826Z,15.83
2019-05-02T12:17:19.270Z,15.53
2019-05-02T12:19:45.476Z,15.65
2019-05-02T12:23:18.001Z,15.18
2019-05-02T12:24:40.887Z,15.10
2019-05-02T12:27:08.010Z,14.78
2019-05-02T12:29:34.301Z,15.03
2019-05-02T12:32:15.673Z,15.09
2019-05-02T12:34:42.136Z,15.09
2019-05-02T12:37:08.458Z,15.00
2019-05-02T12:39:34.648Z,15.30
2019-05-02T12:42:03.108Z,15.58
2019-05-02T12:44:29.119Z,15.53
2019-05-02T12:46:55.561Z,15.78
2019-05-02T12:49:27.128Z,15.02
2019-05-02T12:51:50.025Z,15.00
2019-05-02T12:54:16.295Z,14.63
2019-05-02T12:56:42.669Z,14.75
2019-05-02T12:59:08.861Z,14.81
2019-05-02T13:01:35.306Z,14.79
2019-05-02T13:04:03.433Z,15.00
2019-05-02T13:06:29.747Z,14.98
2019-05-02T13:08:56.006Z,15.23
2019-05-02T13:11:27.195Z,15.37
2019-05-02T13:13:53.656Z,15.73
2019-05-02T13:16:20.192Z,15.87
2019-05-02T13:18:46.398Z,15.87
2019-05-02T13:21:16.887Z,15.36
2019-05-02T13:23:44.724Z,15.16
2019-05-02T13:26:19.574Z,15.09
2019-05-02T13:28:42.374Z,14.76
2019-05-02T13:31:29.093Z,14.87
2019-05-02T13:34:06.439Z,15.05
2019-05-02T13:36:42.256Z,15.20
2019-05-02T13:39:22.827Z,15.05
2019-05-02T13:41:49.273Z,15.31
2019-05-02T13:44:17.512Z,15.35
2019-05-02T13:46:44.009Z,15.20
2019-05-02T13:49:12.674Z,15.05
2019-05-02T13:51:38.965Z,15.32
2019-05-02T13:54:05.483Z,15.37
2019-05-02T13:56:47.873Z,15.49
2019-05-02T13:59:14.730Z,15.52
2019-05-02T14:01:42.351Z,15.70
2019-05-02T14:04:10.234Z,15.71
2019-05-02T14:06:37.872Z,15.74
2019-05-02T14:09:19.920Z,15.74
2019-05-02T14:11:48.063Z,15.05
2019-05-02T14:14:14.402Z,14.95
2019-05-02T14:16:42.004Z,14.96
2019-05-02T14:19:08.318Z,14.86
2019-05-02T14:21:34.771Z,14.62
2019-05-02T14:24:01.761Z,14.51
2019-05-02T14:26:30.551Z,14.64
2019-05-02T14:28:56.420Z,14.58
2019-05-02T14:31:22.734Z,14.58
2019-05-02T14:34:07.593Z,14.63
2019-05-02T14:36:33.856Z,14.69
2019-05-02T14:39:02.278Z,14.70
2019-05-02T14:41:38.890Z,14.75
2019-05-02T14:43:58.656Z,14.69
2019-05-02T14:46:28.657Z,14.57
2019-05-02T14:48:53.757Z,14.64
2019-05-02T14:51:25.513Z,14.74
2019-05-02T14:53:48.669Z,14.82
2019-05-02T14:56:26.014Z,14.48
2019-05-02T14:58:52.924Z,14.16
2019-05-02T15:01:22.553Z,13.79
2019-05-02T15:03:48.710Z,13.59
2019-05-02T15:06:17.828Z,13.32
2019-05-02T15:08:44.975Z,13.06
2019-05-02T15:11:12.534Z,12.98
2019-05-02T15:13:40.941Z,13.00
2019-05-02T15:16:10.433Z,12.74
2019-05-02T15:18:37.293Z,12.69
2019-05-02T15:21:11.401Z,12.62
2019-05-02T15:23:32.523Z,12.58
2019-05-02T15:25:58.923Z,12.57
2019-05-02T15:28:25.236Z,12.59
2019-05-02T15:31:05.350Z,12.62
2019-05-02T15:33:32.551Z,12.55
2019-05-02T15:36:03.089Z,12.41
2019-05-02T15:38:28.854Z,12.41
2019-05-02T15:40:59.489Z,12.46
2019-05-02T15:43:23.362Z,12.52
2019-05-02T15:45:49.842Z,12.40
2019-05-02T15:48:26.015Z,12.35
2019-05-02T15:50:50.182Z,12.44
2019-05-02T15:53:14.252Z,12.45
2019-05-02T15:55:43.619Z,12.50
2019-05-02T15:58:17.164Z,12.50
2019-05-02T16:00:46.208Z,12.29
2019-05-02T16:03:12.553Z,12.21
2019-05-02T16:05:41.208Z,12.01
2019-05-02T16:08:08.829Z,11.95
2019-05-02T16:10:38.374Z,11.86
2019-05-02T16:13:08.785Z,11.78
2019-05-02T16:15:32.913Z,11.88
2019-05-02T16:18:03.651Z,11.88
2019-05-02T16:20:49.221Z,11.77
2019-05-02T16:23:19.106Z,11.71
2019-05-02T16:25:44.323Z,11.74
2019-05-02T16:28:12.618Z,11.70
2019-05-02T16:30:44.164Z,11.70
2019-05-02T16:33:16.741Z,11.78
2019-05-02T16:35:37.504Z,11.68
2019-05-02T16:38:03.958Z,11.76
2019-05-02T16:40:32.843Z,11.68
2019-05-02T16:42:58.898Z,11.81
2019-05-02T16:45:25.522Z,11.81
2019-05-02T16:47:58.747Z,11.78
2019-05-02T16:50:20.108Z,11.76
2019-05-02T16:52:47.431Z,11.72
2019-05-02T16:55:20.821Z,11.51
2019-05-02T16:57:44.983Z,11.52
2019-05-02T17:00:15.272Z,11.52
2019-05-02T17:02:44.901Z,11.53
2019-05-02T17:05:12.093Z,11.42
2019-05-02T17:07:41.103Z,11.43
2019-05-02T17:10:14.618Z,11.36
2019-05-02T17:12:39.190Z,11.35
2019-05-02T17:15:26.349Z,11.32
2019-05-02T17:17:54.378Z,11.39
2019-05-02T17:20:22.163Z,11.36
2019-05-02T17:22:50.370Z,11.28
2019-05-02T17:25:17.066Z,11.27
2019-05-02T17:27:43.312Z,11.18
2019-05-02T17:30:11.936Z,11.27
2019-05-02T17:32:38.640Z,11.33
2019-05-02T17:35:09.760Z,11.26
2019-05-02T17:37:33.950Z,11.33
2019-05-02T17:40:01.770Z,11.22
2019-05-02T17:42:28.286Z,11.29
2019-05-02T17:44:59.390Z,11.40
2019-05-02T17:47:22.609Z,11.25
2019-05-02T17:49:49.766Z,11.28
2019-05-02T17:52:26.875Z,11.10
2019-05-02T17:54:52.977Z,11.19
2019-05-02T17:57:21.452Z,11.13
2019-05-02T17:59:47.673Z,11.20
2019-05-02T18:02:15.991Z,11.23
2019-05-02T18:04:46.614Z,11.27
2019-05-02T18:07:11.693Z,11.28
2019-05-02T18:09:38.278Z,11.35
2019-05-02T18:12:07.131Z,11.29
2019-05-02T18:14:32.999Z,11.33
2019-05-02T18:16:59.525Z,11.26
2019-05-02T18:19:25.863Z,11.24
2019-05-02T18:21:52.675Z,11.28
2019-05-02T18:24:18.929Z,11.22
2019-05-02T18:26:45.535Z,11.21
2019-05-02T18:29:12.669Z,11.13
2019-05-02T18:31:47.262Z,11.13
2019-05-02T18:34:14.302Z,11.05
2019-05-02T18:36:38.029Z,11.08
2019-05-02T18:39:06.564Z,11.16
2019-05-02T18:41:37.425Z,11.17
2019-05-02T18:44:04.293Z,11.01
2019-05-02T18:46:30.621Z,11.00
2019-05-02T18:48:56.880Z,10.94
2019-05-02T18:51:23.221Z,10.75
2019-05-02T18:53:49.584Z,10.57
2019-05-02T18:56:15.952Z,10.44
2019-05-02T18:58:45.242Z,10.36
2019-05-02T19:01:14.034Z,10.29
2019-05-02T19:03:39.357Z,10.19
2019-05-02T19:06:06.728Z,10.11
2019-05-02T19:08:45.271Z,10.11
2019-05-02T19:11:11.706Z,10.14
2019-05-02T19:13:37.662Z,10.24
2019-05-02T19:16:02.930Z,10.29
2019-05-02T19:18:32.247Z,10.33
2019-05-02T19:20:59.695Z,10.37
2019-05-02T19:23:26.129Z,10.47
2019-05-02T19:25:53.013Z,10.49
2019-05-02T19:28:29.075Z,10.54
2019-05-02T19:30:57.246Z,10.66
2019-05-02T19:33:23.854Z,10.58
2019-05-02T19:35:52.436Z,10.54
2019-05-02T19:38:24.716Z,10.34
2019-05-02T19:40:47.017Z,10.42
2019-05-02T19:43:14.792Z,10.48
2019-05-02T19:45:41.302Z,10.55
2019-05-02T19:48:07.651Z,10.45
2019-05-02T19:50:41.754Z,10.38
2019-05-02T19:53:05.388Z,10.25
2019-05-02T19:55:32.153Z,10.21
2019-05-02T19:58:04.818Z,10.21
2019-05-02T20:00:29.495Z,10.19
2019-05-02T20:02:55.972Z,10.31
2019-05-02T20:05:25.517Z,10.48
2019-05-02T20:07:51.969Z,10.51
2019-05-02T20:10:19.404Z,10.48
2019-05-02T20:12:48.110Z,10.46
2019-05-02T20:15:16.997Z,10.41
2019-05-02T20:17:44.535Z,10.53
2019-05-02T20:20:42.490Z,10.59
2019-05-02T20:23:15.463Z,10.72
2019-05-02T20:25:39.094Z,10.72
2019-05-02T20:28:05.285Z,10.75
2019-05-02T20:30:31.615Z,10.72
2019-05-02T20:32:58.076Z,10.73
2019-05-02T20:35:24.474Z,10.59
2019-05-02T20:37:52.591Z,10.58
2019-05-02T20:40:27.919Z,10.66
2019-05-02T20:42:54.263Z,10.74
2019-05-02T20:45:22.653Z,10.74
2019-05-02T20:47:48.736Z,10.70
2019-05-02T20:50:15.124Z,10.71
2019-05-02T20:52:41.796Z,10.54
2019-05-02T20:55:08.263Z,10.45
2019-05-02T20:57:34.480Z,10.50
2019-05-02T21:00:01.660Z,10.53
2019-05-02T21:02:28.318Z,10.41
2019-05-02T21:04:54.620Z,10.43
2019-05-02T21:07:28.378Z,10.32
2019-05-02T21:09:59.261Z,10.38
2019-05-02T21:12:26.580Z,10.32
2019-05-02T21:14:52.913Z,10.35
2019-05-02T21:17:19.202Z,10.34
2019-05-02T21:19:45.423Z,10.28
2019-05-02T21:22:18.131Z,10.11
2019-05-02T21:24:44.438Z,10.14
2019-05-02T21:27:10.796Z,10.22
2019-05-02T21:29:37.144Z,10.18
2019-05-02T21:32:03.568Z,10.15
2019-05-02T21:34:31.715Z,10.11
2019-05-02T21:36:58.937Z,10.09
2019-05-02T21:39:25.283Z,10.00
2019-05-02T21:41:51.782Z,9.97
2019-05-02T21:44:18.225Z,9.92
2019-05-02T21:46:44.453Z,9.83
2019-05-02T21:49:12.710Z,9.66
2019-05-02T21:51:43.460Z,9.69
2019-05-02T21:54:12.192Z,9.59
2019-05-02T21:56:43.601Z,9.58
2019-05-02T21:59:12.142Z,9.47
2019-05-02T22:01:43.721Z,9.46
2019-05-02T22:04:10.143Z,9.52
2019-05-02T22:06:36.479Z,9.45
2019-05-02T22:09:06.129Z,9.37
2019-05-02T22:11:32.646Z,9.43
2019-05-02T22:14:02.469Z,9.45
2019-05-02T22:16:28.737Z,9.45
2019-05-02T22:18:55.195Z,9.48
2019-05-02T22:21:22.797Z,9.48
2019-05-02T22:23:49.177Z,9.42
2019-05-02T22:26:15.453Z,9.42
2019-05-02T22:28:41.617Z,9.48
2019-05-02T22:31:07.694Z,9.46
2019-05-02T22:33:33.939Z,9.55
2019-05-02T22:36:01.807Z,9.56
2019-05-02T22:38:31.815Z,9.53
2019-05-02T22:40:58.675Z,9.52
2019-05-02T22:43:24.965Z,9.47
2019-05-02T22:45:51.246Z,9.46
2019-05-02T22:48:17.384Z,9.47
2019-05-02T22:50:43.618Z,9.49
2019-05-02T22:53:09.812Z,9.57
2019-05-02T22:55:36.083Z,9.55
2019-05-02T22:58:02.412Z,9.59
2019-05-02T23:00:28.619Z,9.58
2019-05-02T23:02:54.857Z,9.50
2019-05-02T23:05:21.267Z,9.50
2019-05-02T23:07:47.448Z,9.48
2019-05-02T23:10:13.800Z,9.47
2019-05-02T23:12:42.255Z,9.28
2019-05-02T23:15:08.412Z,9.25
2019-05-02T23:17:34.562Z,9.23
2019-05-02T23:20:02.165Z,9.27
2019-05-02T23:22:28.488Z,9.22
2019-05-02T23:25:15.376Z,9.08
2019-05-02T23:27:43.526Z,9.08
2019-05-02T23:30:14.220Z,9.02
2019-05-02T23:32:41.915Z,9.02
2019-05-02T23:35:08.646Z,8.98
2019-05-02T23:37:34.954Z,8.96
2019-05-02T23:40:02.011Z,8.91
2019-05-02T23:42:29.048Z,8.88
2019-05-02T23:44:55.230Z,8.89
2019-05-02T23:47:22.453Z,8.87
2019-05-02T23:49:48.877Z,8.90
2019-05-02T23:52:15.109Z,8.90
2019-05-02T23:54:49.913Z,8.82
2019-05-02T23:57:09.541Z,8.80
2019-05-02T23:59:35.720Z,8.74
